Time;durP1;ratioP1;P1;durP2;ratioP2;P2;SDS_P1;SDS_P2;PMS_P1;PMS_P2;Temp;Humidity;BMP_temperature;BMP_pressure;BME280_temperature;BME280_humidity;BME280_pressure;Samples;Min_cycle;Max_cycle;Signal;HPM_P1;HPM_P2
2023/08/27 00:00:37;;;;;;;12.00;7.43;;;;;;;25.32;60.50;95040.09;5014607;28;20228;-73
2023/08/27 00:03:03;;;;;;;10.65;7.20;;;;;;;25.32;60.63;95035.56;4996188;28;20218;-73
2023/08/27 00:05:28;;;;;;;9.95;7.30;;;;;;;25.24;60.35;95033.50;5013587;28;20220;-74
2023/08/27 00:07:54;;;;;;;15.13;7.03;;;;;;;25.19;60.77;95044.31;5009727;28;20221;-73
2023/08/27 00:10:19;;;;;;;10.57;7.18;;;;;;;25.26;60.38;95044.75;5011129;28;20217;-74
2023/08/27 00:12:45;;;;;;;10.98;7.18;;;;;;;25.17;60.69;95033.06;5001138;28;20289;-73
2023/08/27 00:15:10;;;;;;;13.43;7.35;;;;;;;25.22;60.40;95038.34;5031890;28;20224;-73
2023/08/27 00:17:36;;;;;;;10.05;6.57;;;;;;;25.24;60.24;95033.50;5006389;28;20313;-74
2023/08/27 00:20:04;;;;;;;10.95;7.05;;;;;;;25.29;60.48;95029.97;4994533;28;20257;-73
2023/08/27 00:22:30;;;;;;;11.48;6.95;;;;;;;25.14;60.13;95020.25;5000067;28;20252;-73
2023/08/27 00:24:55;;;;;;;7.53;6.40;;;;;;;25.06;59.90;95018.22;4996332;28;20316;-73
2023/08/27 00:27:21;;;;;;;9.30;6.63;;;;;;;25.10;59.76;95008.50;5007016;28;20630;-72
2023/08/27 00:29:46;;;;;;;9.02;6.03;;;;;;;24.98;60.14;95016.16;5030537;28;20233;-73
2023/08/27 00:32:12;;;;;;;13.30;6.65;;;;;;;24.96;60.67;95018.34;5010594;28;20295;-73
2023/08/27 00:34:37;;;;;;;10.13;6.35;;;;;;;25.00;60.42;95018.56;5017778;28;20295;-74
2023/08/27 00:37:03;;;;;;;12.38;6.28;;;;;;;25.01;59.84;95015.59;5026844;28;20218;-73
2023/08/27 00:39:29;;;;;;;11.57;6.60;;;;;;;24.95;60.05;95014.06;4994748;28;20229;-74
2023/08/27 00:41:55;;;;;;;9.68;6.63;;;;;;;24.92;60.64;95009.28;5019332;28;20222;-73
2023/08/27 00:44:20;;;;;;;8.50;6.50;;;;;;;24.82;61.06;95003.25;5023920;28;20271;-73
2023/08/27 00:46:47;;;;;;;9.60;6.80;;;;;;;24.74;60.94;95004.66;5005642;28;20236;-73
2023/08/27 00:49:13;;;;;;;12.68;7.13;;;;;;;24.54;62.23;94997.66;5012613;28;20275;-73
2023/08/27 00:51:38;;;;;;;12.73;7.10;;;;;;;24.56;61.93;95000.03;5009117;28;20229;-73
2023/08/27 00:54:07;;;;;;;9.35;7.00;;;;;;;24.58;61.76;95006.69;5014305;28;20639;-73
2023/08/27 00:56:32;;;;;;;11.70;7.15;;;;;;;24.54;61.90;94999.53;5016625;28;20228;-73
2023/08/27 00:59:00;;;;;;;9.02;6.53;;;;;;;24.52;62.09;94999.00;5014532;28;20229;-73
2023/08/27 01:01:25;;;;;;;10.48;6.53;;;;;;;24.52;61.71;95004.38;5022832;28;20225;-72
2023/08/27 01:03:51;;;;;;;10.35;6.78;;;;;;;24.55;62.01;94998.44;4995423;28;20793;-72
2023/08/27 01:06:16;;;;;;;12.30;6.80;;;;;;;24.52;61.93;94999.00;5008887;28;20218;-72
2023/08/27 01:08:58;;;;;;;12.40;6.68;;;;;;;24.43;61.83;94998.81;5024275;28;20675;-72
2023/08/27 01:11:56;;;;;;;11.38;6.72;;;;;;;24.41;62.41;95000.22;5031455;28;20255;-72
2023/08/27 01:14:22;;;;;;;10.50;6.55;;;;;;;24.50;61.70;94998.50;5006110;28;20238;-73
2023/08/27 01:16:47;;;;;;;10.40;6.40;;;;;;;24.45;62.04;95004.72;5022243;28;20257;-73
2023/08/27 01:19:14;;;;;;;10.02;6.25;;;;;;;24.44;61.74;94995.06;4992483;28;20717;-73
2023/08/27 01:21:44;;;;;;;9.88;6.40;;;;;;;24.34;62.53;94995.19;5025022;28;20244;-73
2023/08/27 01:24:10;;;;;;;12.57;6.18;;;;;;;24.37;62.47;94996.50;4996063;28;20233;-73
2023/08/27 01:26:39;;;;;;;9.13;6.22;;;;;;;24.36;62.24;94994.91;5012091;28;20233;-73
2023/08/27 01:29:19;;;;;;;10.68;6.60;;;;;;;24.28;62.85;95004.34;5025355;28;20230;-73
2023/08/27 01:31:49;;;;;;;9.95;6.18;;;;;;;24.16;63.31;95000.44;5018012;28;20329;-72
2023/08/27 01:34:15;;;;;;;8.90;6.70;;;;;;;24.05;64.29;95002.38;4997113;28;20226;-74
2023/08/27 01:36:40;;;;;;;9.70;6.50;;;;;;;23.89;64.69;95003.59;4992521;28;20236;-73
2023/08/27 01:39:06;;;;;;;10.05;6.22;;;;;;;24.07;64.34;95006.41;5013042;28;20229;-73
2023/08/27 01:41:31;;;;;;;9.88;6.68;;;;;;;24.01;64.27;95017.41;5026717;28;20656;-73
2023/08/27 01:43:57;;;;;;;10.40;6.53;;;;;;;24.11;64.38;95017.34;5036357;28;20232;-72
2023/08/27 01:46:23;;;;;;;10.48;6.95;;;;;;;23.92;65.13;95021.75;5030624;28;20718;-73
2023/08/27 01:48:48;;;;;;;12.20;7.13;;;;;;;23.90;65.32;95019.38;4998023;28;20309;-72
2023/08/27 01:51:13;;;;;;;10.30;6.43;;;;;;;23.85;65.88;95022.09;5037779;28;20749;-72
2023/08/27 01:53:39;;;;;;;13.15;7.10;;;;;;;23.88;65.79;95018.84;5032770;28;20270;-73
2023/08/27 01:56:05;;;;;;;10.63;6.90;;;;;;;23.69;66.37;95017.13;5030275;28;20234;-73
2023/08/27 01:58:31;;;;;;;9.00;6.45;;;;;;;23.51;67.14;95012.44;5006955;28;20221;-74
2023/08/27 02:00:56;;;;;;;8.20;6.57;;;;;;;23.50;67.39;95008.97;5021540;28;20282;-73
2023/08/27 02:03:22;;;;;;;9.40;6.55;;;;;;;23.47;67.06;95004.19;5021047;28;20237;-73
2023/08/27 02:05:48;;;;;;;10.02;6.75;;;;;;;23.37;67.28;95002.38;5008393;28;21716;-72
2023/08/27 02:08:13;;;;;;;10.10;6.72;;;;;;;23.56;66.73;94999.03;4999080;28;20316;-73
2023/08/27 02:10:39;;;;;;;11.73;6.68;;;;;;;23.50;67.04;95000.16;5028362;28;20242;-74
2023/08/27 02:13:04;;;;;;;9.98;6.82;;;;;;;23.58;66.62;95000.34;5031883;28;20233;-74
2023/08/27 02:15:30;;;;;;;12.48;7.10;;;;;;;23.62;66.38;94993.38;5016081;28;20245;-73
2023/08/27 02:17:55;;;;;;;11.85;7.20;;;;;;;23.48;67.09;94995.06;4996950;28;20226;-73
2023/08/27 02:20:21;;;;;;;10.52;6.63;;;;;;;23.57;67.05;94997.97;5000335;28;20705;-74
2023/08/27 02:22:47;;;;;;;12.77;7.03;;;;;;;23.53;67.53;94989.69;5012670;28;20278;-73
2023/08/27 02:25:12;;;;;;;10.27;6.88;;;;;;;23.51;67.51;94988.38;5010946;28;20280;-73
2023/08/27 02:27:38;;;;;;;9.65;7.15;;;;;;;23.37;68.43;94998.91;5016271;28;20222;-72
2023/08/27 02:30:04;;;;;;;12.63;7.10;;;;;;;23.41;68.54;94999.94;5001394;28;20244;-73
2023/08/27 02:32:29;;;;;;;10.88;6.72;;;;;;;23.48;67.71;95000.41;5008298;28;20317;-73
2023/08/27 02:34:55;;;;;;;8.50;6.93;;;;;;;23.59;67.66;95001.16;5012146;28;20232;-73
2023/08/27 02:37:21;;;;;;;9.75;7.20;;;;;;;23.36;68.57;95000.78;5004866;28;20597;-73
2023/08/27 02:39:46;;;;;;;11.15;6.80;;;;;;;23.32;68.82;94991.69;5011751;28;20229;-72
2023/08/27 02:42:12;;;;;;;9.60;7.13;;;;;;;23.13;69.79;94995.28;5028282;28;20230;-72
2023/08/27 02:44:37;;;;;;;10.02;7.15;;;;;;;22.85;70.55;94993.28;5029813;28;20878;-72
2023/08/27 02:47:03;;;;;;;10.00;7.18;;;;;;;22.74;71.23;94993.31;5031484;28;20687;-73
2023/08/27 02:49:29;;;;;;;10.52;7.47;;;;;;;22.64;71.89;94987.25;5009494;28;20611;-73
2023/08/27 02:51:54;;;;;;;10.95;7.30;;;;;;;22.66;71.90;94988.53;5012332;28;20236;-73
2023/08/27 02:54:20;;;;;;;10.50;7.32;;;;;;;22.69;71.89;94990.66;5024441;28;20292;-74
2023/08/27 02:56:45;;;;;;;10.40;7.40;;;;;;;22.65;71.88;94991.50;4993906;28;21038;-73
2023/08/27 02:59:10;;;;;;;12.13;7.25;;;;;;;;;;5036881;28;20221;-75
2023/08/27 03:01:36;;;;;;;11.73;7.55;;;;;;;;;;5025771;28;20296;-76
2023/08/27 03:04:03;;;;;;;12.00;7.40;;;;;;;22.57;72.55;94995.47;5002529;28;20233;-75
2023/08/27 03:06:28;;;;;;;12.90;7.45;;;;;;;22.71;71.96;95006.44;5029551;28;20966;-75
2023/08/27 03:08:53;;;;;;;10.55;7.10;;;;;;;22.79;71.61;94997.84;5015630;28;20232;-76
2023/08/27 03:11:19;;;;;;;10.57;7.68;;;;;;;22.94;70.88;94999.66;4994828;28;20265;-75
2023/08/27 03:13:45;;;;;;;13.82;7.80;;;;;;;22.87;71.30;95001.81;5022629;28;20239;-75
2023/08/27 03:16:10;;;;;;;11.43;6.70;;;;;;;22.58;72.47;95002.44;5029678;28;20222;-75
2023/08/27 03:18:36;;;;;;;11.90;7.38;;;;;;;22.36;72.74;94999.28;5001055;28;20415;-75
2023/08/27 03:21:01;;;;;;;10.32;7.70;;;;;;;22.46;72.83;95001.94;5029371;28;20217;-75
2023/08/27 03:23:30;;;;;;;13.25;7.32;;;;;;;22.60;72.61;95000.28;5024616;28;20238;-74
2023/08/27 03:25:55;;;;;;;11.52;7.30;;;;;;;22.52;73.11;94997.38;5014158;28;20228;-75
2023/08/27 03:28:21;;;;;;;11.52;7.70;;;;;;;22.36;74.07;95003.81;5010520;28;20288;-74
2023/08/27 03:30:46;;;;;;;12.80;7.72;;;;;;;22.18;74.50;94999.88;5006064;28;20313;-74
2023/08/27 03:33:12;;;;;;;11.23;7.15;;;;;;;22.17;74.90;95008.91;5007016;28;20230;-74
2023/08/27 03:35:37;;;;;;;10.32;7.40;;;;;;;22.02;75.07;95008.94;5000831;28;20228;-74
2023/08/27 03:38:03;;;;;;;12.32;7.57;;;;;;;21.97;75.63;95001.72;5027968;28;20230;-75
2023/08/27 03:40:29;;;;;;;15.02;7.95;;;;;;;22.12;75.29;95000.94;4989322;28;20708;-76
2023/08/27 03:42:54;;;;;;;12.43;7.65;;;;;;;22.05;75.56;95005.72;5024744;28;20274;-76
2023/08/27 03:45:20;;;;;;;11.60;7.97;;;;;;;22.22;74.67;95008.91;5010540;28;20225;-75
2023/08/27 03:47:45;;;;;;;14.00;8.20;;;;;;;22.20;74.83;95011.06;5025256;28;20303;-75
2023/08/27 03:50:11;;;;;;;11.57;7.68;;;;;;;22.18;75.04;95005.19;4993904;28;20226;-75
2023/08/27 03:52:36;;;;;;;12.18;7.55;;;;;;;22.19;75.28;95008.66;5018252;28;20232;-75
2023/08/27 03:55:02;;;;;;;13.00;7.88;;;;;;;22.16;75.28;95009.19;5005890;28;20221;-75
2023/08/27 03:57:28;;;;;;;12.75;7.78;;;;;;;22.28;74.73;95013.19;5006002;28;20316;-74
2023/08/27 03:59:53;;;;;;;14.00;7.90;;;;;;;22.22;74.95;95016.91;4996583;28;20225;-75
2023/08/27 04:02:19;;;;;;;12.90;7.90;;;;;;;22.12;75.54;95020.41;5009390;28;20353;-75
2023/08/27 04:04:44;;;;;;;13.02;7.93;;;;;;;22.01;76.17;95020.69;5027378;28;20244;-76
2023/08/27 04:07:10;;;;;;;13.30;8.18;;;;;;;22.00;76.57;95029.72;5013056;28;20283;-75
2023/08/27 04:09:36;;;;;;;13.95;8.35;;;;;;;22.03;76.27;95030.00;5013887;28;20686;-74
2023/08/27 04:12:01;;;;;;;11.38;8.00;;;;;;;22.04;76.58;95025.47;5025417;28;20248;-75
2023/08/27 04:14:27;;;;;;;15.40;8.02;;;;;;;22.08;76.40;95023.88;5007333;28;20231;-74
2023/08/27 04:16:52;;;;;;;11.90;8.00;;;;;;;22.09;76.43;95033.47;5007732;28;20283;-75
2023/08/27 04:19:18;;;;;;;12.10;8.00;;;;;;;22.01;76.51;95034.81;5016590;28;20236;-75
2023/08/27 04:21:44;;;;;;;12.57;7.80;;;;;;;22.14;75.93;95036.13;4993522;28;21219;-75
2023/08/27 04:24:09;;;;;;;11.82;7.82;;;;;;;22.03;76.36;95037.19;5014868;28;21076;-75
2023/08/27 04:26:35;;;;;;;12.70;7.95;;;;;;;22.08;76.21;95037.19;5006563;28;20318;-75
2023/08/27 04:29:00;;;;;;;12.95;7.78;;;;;;;22.22;75.81;95037.44;5023252;28;21149;-75
2023/08/27 04:31:26;;;;;;;11.05;7.50;;;;;;;22.40;74.98;95035.00;5001844;28;20224;-75
2023/08/27 04:33:51;;;;;;;13.95;7.55;;;;;;;22.41;75.24;95027.81;5003303;28;20691;-75
2023/08/27 04:36:17;;;;;;;13.00;8.13;;;;;;;22.30;75.86;95035.06;5007415;28;20232;-74
2023/08/27 04:38:43;;;;;;;11.63;8.30;;;;;;;22.29;76.17;95028.09;4997276;28;20828;-75
2023/08/27 04:41:08;;;;;;;15.43;8.50;;;;;;;22.17;76.92;95024.91;5038709;28;20244;-75
2023/08/27 04:43:34;;;;;;;13.32;8.73;;;;;;;22.25;76.95;95029.72;4993988;28;20363;-75
2023/08/27 04:45:59;;;;;;;13.88;8.52;;;;;;;22.37;76.71;95024.91;5010115;28;20736;-75
2023/08/27 04:48:25;;;;;;;13.93;8.73;;;;;;;22.12;78.01;95031.06;5004511;28;20280;-73
2023/08/27 04:50:50;;;;;;;11.30;8.70;;;;;;;22.31;77.27;95031.28;5012830;28;20680;-73
2023/08/27 04:53:16;;;;;;;14.65;9.05;;;;;;;22.35;76.71;95042.25;5006697;28;20225;-72
2023/08/27 04:55:44;;;;;;;13.40;8.57;;;;;;;22.51;76.30;95047.28;4991602;28;20698;-73
2023/08/27 04:58:09;;;;;;;15.48;8.52;;;;;;;22.57;76.13;95045.41;5020354;28;20238;-73
2023/08/27 05:00:38;;;;;;;16.13;8.50;;;;;;;22.56;75.93;95041.13;5004731;28;20228;-73
2023/08/27 05:03:03;;;;;;;13.25;8.70;;;;;;;22.55;76.28;95044.84;5012754;28;20229;-72
2023/08/27 05:05:29;;;;;;;13.45;8.68;;;;;;;22.73;75.53;95044.31;5006504;28;20236;-74
2023/08/27 05:07:54;;;;;;;13.90;8.45;;;;;;;22.88;75.25;95040.78;5025069;28;20304;-73
2023/08/27 05:10:20;;;;;;;12.88;7.45;;;;;;;23.51;71.00;95047.97;5005564;28;20257;-73
2023/08/27 05:12:46;;;;;;;11.68;7.60;;;;;;;24.22;67.28;95053.63;5007704;28;20773;-73
2023/08/27 05:15:11;;;;;;;11.90;7.43;;;;;;;23.85;68.55;95056.84;4993947;28;20229;-73
2023/08/27 05:17:37;;;;;;;13.20;7.60;;;;;;;24.69;64.98;95055.59;5023185;28;20285;-72
2023/08/27 05:20:04;;;;;;;10.20;6.97;;;;;;;24.08;66.36;95056.16;5004010;28;20226;-73
2023/08/27 05:22:29;;;;;;;11.73;7.53;;;;;;;23.68;68.62;95050.28;5009637;28;20236;-74
2023/08/27 05:24:55;;;;;;;11.90;7.28;;;;;;;23.40;68.87;95046.44;5028213;28;20224;-76
2023/08/27 05:27:21;;;;;;;14.95;7.30;;;;;;;23.29;69.35;95044.84;5009776;28;20239;-75
2023/08/27 05:29:47;;;;;;;12.48;7.22;;;;;;;23.35;69.91;95052.63;4992590;28;20296;-74
2023/08/27 05:32:12;;;;;;;10.70;7.30;;;;;;;23.41;69.68;95048.84;5013817;28;20226;-75
2023/08/27 05:34:38;;;;;;;11.20;7.28;;;;;;;23.55;68.68;95048.25;5013806;28;20226;-75
2023/08/27 05:37:03;;;;;;;10.98;7.60;;;;;;;23.53;69.46;95053.03;5008782;28;20221;-76
2023/08/27 05:39:29;;;;;;;12.63;7.15;;;;;;;23.46;70.19;95064.03;5007670;28;20352;-75
2023/08/27 05:41:58;;;;;;;11.88;7.45;;;;;;;23.44;69.07;95060.84;5034496;28;20232;-77
2023/08/27 05:44:23;;;;;;;10.27;7.20;;;;;;;23.59;68.96;95055.41;5015274;28;20236;-75
2023/08/27 05:46:49;;;;;;;10.70;7.10;;;;;;;23.51;69.49;95061.34;5011256;28;20229;-75
2023/08/27 05:49:15;;;;;;;11.65;7.22;;;;;;;23.52;69.25;95059.47;5011125;28;20230;-74
2023/08/27 05:51:40;;;;;;;15.20;7.65;;;;;;;23.55;69.19;95059.69;5012304;28;20309;-75
2023/08/27 05:54:06;;;;;;;12.32;7.13;;;;;;;23.51;69.88;95053.31;5006643;28;20320;-75
2023/08/27 05:56:32;;;;;;;10.35;7.30;;;;;;;23.66;69.65;95053.22;5028004;28;20226;-74
2023/08/27 05:58:57;;;;;;;11.85;7.22;;;;;;;23.74;68.93;95051.84;4983025;28;20245;-75
2023/08/27 06:01:23;;;;;;;12.27;7.78;;;;;;;23.74;68.53;95052.63;5002545;28;20253;-75
2023/08/27 06:03:52;;;;;;;12.35;7.40;;;;;;;23.75;68.86;95053.44;5006415;28;20383;-74
2023/08/27 06:06:18;;;;;;;10.80;7.47;;;;;;;23.84;68.52;95046.41;5004436;28;20218;-74
2023/08/27 06:08:43;;;;;;;10.27;7.40;;;;;;;23.83;68.32;95047.50;5015606;28;20265;-75
2023/08/27 06:11:11;;;;;;;11.38;7.40;;;;;;;23.85;68.62;95048.00;5020000;28;20237;-72
2023/08/27 06:13:37;;;;;;;14.32;7.85;;;;;;;23.81;67.94;95047.00;4989305;28;20280;-74
2023/08/27 06:16:03;;;;;;;11.77;8.15;;;;;;;23.88;68.79;95040.22;5029961;28;20351;-72
2023/08/27 06:18:28;;;;;;;12.27;7.47;;;;;;;24.12;67.51;95039.56;4998185;28;20225;-74
2023/08/27 06:20:54;;;;;;;13.57;8.00;;;;;;;24.05;67.99;95039.81;5014268;28;20230;-72
2023/08/27 06:23:19;;;;;;;10.23;7.53;;;;;;;23.93;68.36;95044.75;5047450;28;20237;-74
2023/08/27 06:25:45;;;;;;;12.75;7.88;;;;;;;24.02;68.19;95035.84;4996954;28;20928;-73
2023/08/27 06:28:10;;;;;;;11.40;7.63;;;;;;;24.11;67.72;95038.75;5014178;28;20221;-72
2023/08/27 06:30:40;;;;;;;12.13;7.90;;;;;;;24.04;67.41;95036.38;5008440;28;20612;-73
2023/08/27 06:33:05;;;;;;;11.23;7.50;;;;;;;24.18;67.48;95030.38;5009777;28;20260;-73
2023/08/27 06:35:31;;;;;;;13.32;7.05;;;;;;;24.26;67.00;95029.78;4995849;28;20237;-73
2023/08/27 06:37:56;;;;;;;12.20;7.78;;;;;;;24.21;66.66;95033.31;4996584;28;20621;-72
2023/08/27 06:40:22;;;;;;;10.70;8.00;;;;;;;24.23;66.99;95028.47;5013082;28;20231;-73
2023/08/27 06:42:47;;;;;;;10.98;7.60;;;;;;;24.38;66.18;95025.66;5027047;28;20261;-73
2023/08/27 06:45:13;;;;;;;10.70;7.70;;;;;;;24.52;66.27;95037.28;5011718;28;20230;-73
2023/08/27 06:47:38;;;;;;;16.15;7.63;;;;;;;24.65;65.15;95028.56;5015395;28;20234;-73
2023/08/27 06:50:04;;;;;;;14.23;8.13;;;;;;;24.61;65.34;95029.44;5007081;28;20221;-72
2023/08/27 06:52:34;;;;;;;15.38;8.32;;;;;;;24.58;65.21;95030.78;5045883;28;20217;-72
2023/08/27 06:55:00;;;;;;;12.13;7.70;;;;;;;24.56;64.94;95030.28;5019193;28;20232;-73
2023/08/27 06:57:25;;;;;;;12.30;8.15;;;;;;;24.65;65.26;95030.44;4997318;28;20274;-72
2023/08/27 06:59:51;;;;;;;15.05;7.90;;;;;;;24.70;64.66;95027.72;5017979;28;20226;-72
2023/08/27 07:02:16;;;;;;;12.40;8.10;;;;;;;24.80;63.99;95027.63;5011267;28;20252;-73
2023/08/27 07:04:43;;;;;;;10.27;7.75;;;;;;;24.85;64.00;95032.13;5014136;28;20222;-73
2023/08/27 07:07:08;;;;;;;10.50;7.55;;;;;;;24.90;64.55;95026.72;4992656;28;21144;-73
2023/08/27 07:09:34;;;;;;;10.75;7.88;;;;;;;25.01;63.74;95028.97;5008158;28;20226;-73
2023/08/27 07:11:59;;;;;;;14.90;7.80;;;;;;;25.26;63.87;95028.69;5037925;28;20230;-76
2023/08/27 07:14:24;;;;;;;13.15;7.50;;;;;;;25.32;63.28;95026.72;5022179;28;20225;-75
2023/08/27 07:16:50;;;;;;;12.18;7.57;;;;;;;25.24;62.39;95043.44;4996925;28;20244;-76
2023/08/27 07:19:15;;;;;;;12.38;7.82;;;;;;;25.28;62.96;95031.88;5007552;28;20236;-75
2023/08/27 07:21:41;;;;;;;14.23;8.13;;;;;;;25.34;62.45;95030.69;5005615;28;20230;-75
2023/08/27 07:24:07;;;;;;;11.50;7.50;;;;;;;25.33;63.12;95037.16;5001111;28;20322;-76
2023/08/27 07:26:32;;;;;;;14.15;8.05;;;;;;;25.37;62.41;95032.00;5026866;28;20235;-74
2023/08/27 07:28:58;;;;;;;11.73;7.80;;;;;;;25.50;62.12;95046.59;4995625;28;20258;-76
2023/08/27 07:31:24;;;;;;;10.95;7.63;;;;;;;25.66;61.39;95042.63;5015744;28;20232;-75
2023/08/27 07:33:49;;;;;;;11.63;7.80;;;;;;;25.65;61.67;95043.72;5026790;28;20222;-75
2023/08/27 07:36:15;;;;;;;19.55;8.18;;;;;;;25.65;60.63;95041.81;5012378;28;20242;-76
2023/08/27 07:38:41;;;;;;;10.93;7.57;;;;;;;25.81;61.13;95031.66;5015949;28;20886;-76
2023/08/27 07:41:07;;;;;;;13.73;8.35;;;;;;;25.95;61.00;95035.19;5010072;28;20226;-75
2023/08/27 07:43:33;;;;;;;16.08;8.70;;;;;;;25.99;61.04;95033.53;5005320;28;20347;-75
2023/08/27 07:45:59;;;;;;;12.15;8.30;;;;;;;26.04;59.68;95026.19;5014541;28;20698;-75
2023/08/27 07:48:25;;;;;;;12.40;8.07;;;;;;;26.07;59.37;95022.13;5009394;28;20230;-75
2023/08/27 07:50:50;;;;;;;12.80;8.00;;;;;;;26.06;59.33;95028.56;5000655;28;20225;-75
2023/08/27 07:53:16;;;;;;;15.32;7.88;;;;;;;26.13;59.27;95022.88;5008923;28;20379;-75
2023/08/27 07:55:41;;;;;;;12.77;7.95;;;;;;;26.19;58.71;95030.53;5010000;28;20226;-74
2023/08/27 07:58:07;;;;;;;12.32;7.93;;;;;;;26.27;58.81;95021.81;4997568;28;20238;-75
2023/08/27 08:00:33;;;;;;;14.27;7.93;;;;;;;26.33;57.92;95011.78;5015594;28;20266;-75
2023/08/27 08:02:59;;;;;;;13.68;7.80;;;;;;;26.38;57.38;95011.69;4997843;28;20229;-75
2023/08/27 08:05:24;;;;;;;13.07;8.30;;;;;;;26.48;57.92;95011.50;5033664;28;20234;-76
2023/08/27 08:07:49;;;;;;;14.93;8.35;;;;;;;26.57;57.67;95005.16;4986400;28;20260;-75
2023/08/27 08:10:15;;;;;;;14.45;8.40;;;;;;;26.62;57.79;95002.38;4995929;28;20267;-75
2023/08/27 08:12:41;;;;;;;13.82;9.05;;;;;;;26.81;57.49;95001.50;5022385;28;20228;-75
2023/08/27 08:15:07;;;;;;;11.82;8.25;;;;;;;26.86;56.78;95004.91;5019169;28;20251;-75
2023/08/27 08:17:32;;;;;;;13.35;8.38;;;;;;;26.95;56.81;95002.31;4994678;28;20230;-76
2023/08/27 08:19:58;;;;;;;11.70;7.53;;;;;;;27.00;56.15;94996.81;5011968;28;20224;-75
2023/08/27 08:22:23;;;;;;;12.27;6.90;;;;;;;27.11;54.48;94992.81;4990793;28;20274;-73
2023/08/27 08:24:49;;;;;;;10.50;7.57;;;;;;;27.21;55.36;95000.69;5004494;28;20238;-75
2023/08/27 08:27:14;;;;;;;11.02;7.68;;;;;;;27.31;55.39;94992.41;5013952;28;20608;-75
2023/08/27 08:29:40;;;;;;;13.10;7.57;;;;;;;27.38;54.34;94990.13;5014221;28;20240;-74
2023/08/27 08:32:05;;;;;;;15.10;7.40;;;;;;;27.50;54.05;94986.91;5018988;28;20237;-75
2023/08/27 08:34:31;;;;;;;14.38;7.13;;;;;;;27.62;53.46;94982.56;5030916;28;20222;-75
2023/08/27 08:36:56;;;;;;;12.65;7.18;;;;;;;27.59;53.07;94975.09;5020308;28;20304;-74
2023/08/27 08:39:24;;;;;;;12.07;7.07;;;;;;;27.74;52.31;94977.44;4996362;28;20226;-75
2023/08/27 08:42:14;;;;;;;11.18;6.88;;;;;;;27.82;52.27;94971.31;5022461;28;20253;-75
2023/08/27 08:44:49;;;;;;;10.05;6.95;;;;;;;27.94;50.97;94973.47;4986525;28;20234;-74
2023/08/27 08:47:16;;;;;;;11.32;7.10;;;;;;;27.97;50.69;94976.34;4975390;28;20226;-76
2023/08/27 08:49:42;;;;;;;12.38;7.38;;;;;;;28.07;50.46;94974.53;4990063;28;20284;-75
2023/08/27 08:52:08;;;;;;;11.48;6.82;;;;;;;28.13;50.56;94968.72;4992424;28;20238;-76
2023/08/27 08:54:34;;;;;;;11.57;6.88;;;;;;;28.20;51.59;94970.97;4979656;28;20229;-75
2023/08/27 08:57:03;;;;;;;8.95;6.47;;;;;;;28.34;49.88;94963.59;4984731;28;20317;-74
2023/08/27 08:59:28;;;;;;;15.80;7.22;;;;;;;28.58;49.13;94955.94;5009468;28;20316;-74
2023/08/27 09:01:54;;;;;;;9.88;6.88;;;;;;;28.66;48.75;94960.56;5001342;28;20228;-75
2023/08/27 09:04:20;;;;;;;13.13;6.38;;;;;;;28.81;47.92;94951.28;4993333;28;20275;-75
2023/08/27 09:06:46;;;;;;;12.02;7.50;;;;;;;28.85;48.14;94947.63;4984796;28;20229;-75
2023/08/27 09:09:11;;;;;;;11.23;6.90;;;;;;;28.95;47.00;94941.16;4997687;28;20359;-75
2023/08/27 09:11:38;;;;;;;12.30;7.20;;;;;;;29.05;47.82;94941.66;4982661;28;20230;-76
2023/08/27 09:14:04;;;;;;;10.48;6.90;;;;;;;29.17;47.54;94949.94;4999715;28;20232;-75
2023/08/27 09:16:30;;;;;;;10.57;6.95;;;;;;;29.12;46.93;94942.00;4992647;28;20229;-75
2023/08/27 09:18:56;;;;;;;13.45;7.50;;;;;;;29.26;47.42;94941.88;4998293;28;20227;-73
2023/08/27 09:21:21;;;;;;;10.65;7.10;;;;;;;29.40;46.66;94939.81;4994426;28;20369;-75
2023/08/27 09:23:47;;;;;;;9.10;6.97;;;;;;;29.55;45.82;94935.84;5036510;28;20256;-75
2023/08/27 09:26:14;;;;;;;11.75;7.13;;;;;;;29.77;46.00;94935.72;4996453;28;20630;-75
2023/08/27 09:28:41;;;;;;;11.13;6.57;;;;;;;29.89;43.53;94933.97;5005730;28;20324;-76
2023/08/27 09:31:10;;;;;;;9.63;6.05;;;;;;;30.09;43.67;94931.69;4995838;28;20242;-76
2023/08/27 09:33:40;;;;;;;11.20;6.20;;;;;;;30.22;43.52;94925.28;4996657;28;20284;-75
2023/08/27 09:36:07;;;;;;;8.52;6.60;;;;;;;30.35;43.81;94925.13;4994821;28;20222;-75
2023/08/27 09:38:33;;;;;;;11.68;6.55;;;;;;;30.41;43.37;94929.22;4995163;28;20259;-75
2023/08/27 09:41:16;;;;;;;12.07;6.43;;;;;;;30.46;43.04;94920.16;4987575;28;20691;-75
2023/08/27 09:43:52;;;;;;;9.40;6.38;;;;;;;30.41;42.49;94920.31;4984646;28;20252;-75
2023/08/27 09:46:18;;;;;;;10.70;6.50;;;;;;;30.48;43.17;94921.41;4981683;28;20734;-75
2023/08/27 09:48:44;;;;;;;13.32;6.03;;;;;;;30.41;43.45;94918.44;4991284;28;20239;-75
2023/08/27 09:51:09;;;;;;;11.35;6.22;;;;;;;30.46;43.38;94915.53;4975013;28;20223;-75
2023/08/27 09:53:35;;;;;;;12.70;6.53;;;;;;;30.52;42.07;94916.16;5012093;28;20227;-75
2023/08/27 09:56:03;;;;;;;10.73;6.53;;;;;;;30.61;42.63;94906.91;4974408;28;20239;-76
2023/08/27 09:58:29;;;;;;;14.23;6.95;;;;;;;30.73;42.12;94911.59;4982479;28;20229;-75
2023/08/27 10:00:59;;;;;;;14.23;6.70;;;;;;;30.81;42.44;94910.75;4996504;28;20283;-75
2023/08/27 10:03:24;;;;;;;9.00;6.38;;;;;;;30.77;42.23;94911.72;4979607;28;20231;-76
2023/08/27 10:05:50;;;;;;;9.50;6.40;;;;;;;30.87;43.13;94900.56;5001661;28;20226;-75
2023/08/27 10:08:16;;;;;;;12.02;6.40;;;;;;;30.98;41.75;94901.78;4996535;28;20237;-74
2023/08/27 10:10:41;;;;;;;10.32;6.30;;;;;;;31.10;41.86;94901.84;5013993;28;20230;-75
2023/08/27 10:13:07;;;;;;;10.57;6.30;;;;;;;31.16;41.99;94906.75;4997804;28;20238;-76
2023/08/27 10:15:35;;;;;;;10.13;6.45;;;;;;;31.09;41.02;94895.66;4991981;28;20277;-74
2023/08/27 10:18:01;;;;;;;12.30;6.40;;;;;;;31.27;41.28;94890.91;4999395;28;20240;-75
2023/08/27 10:20:27;;;;;;;12.23;5.90;;;;;;;31.41;40.57;94888.72;4985745;28;20226;-75
2023/08/27 10:22:52;;;;;;;9.00;6.20;;;;;;;31.49;39.87;94887.09;4988764;28;20257;-76
2023/08/27 10:25:18;;;;;;;12.25;6.25;;;;;;;31.57;40.11;94891.66;4994276;28;20217;-75
2023/08/27 10:27:47;;;;;;;8.98;6.15;;;;;;;31.71;40.13;94890.25;4997128;28;20239;-76
2023/08/27 10:30:13;;;;;;;12.18;6.30;;;;;;;31.68;40.21;94880.09;4982514;28;20228;-75
2023/08/27 10:32:38;;;;;;;11.27;5.93;;;;;;;31.57;38.27;94878.13;4988769;28;20225;-75
2023/08/27 10:35:05;;;;;;;13.90;5.90;;;;;;;31.75;38.79;94874.91;5014279;28;20711;-76
2023/08/27 10:37:31;;;;;;;11.73;6.03;;;;;;;31.92;38.25;94876.66;5001500;28;20222;-75
2023/08/27 10:39:57;;;;;;;14.55;5.85;;;;;;;32.09;37.14;94878.41;4999839;28;20226;-76
2023/08/27 10:42:32;;;;;;;16.17;6.18;;;;;;;32.19;37.36;94875.28;5001944;28;20230;-76
2023/08/27 10:45:19;;;;;;;17.00;5.38;;;;;;;32.27;37.96;94874.34;5005363;28;20230;-75
2023/08/27 10:48:12;;;;;;;16.23;5.75;;;;;;;32.27;36.10;94868.94;5010121;28;20741;-73
2023/08/27 10:50:46;;;;;;;10.45;5.40;;;;;;;32.29;35.71;94867.47;5029880;28;20240;-72
2023/08/27 10:53:12;;;;;;;11.00;5.32;;;;;;;32.37;37.79;94866.59;5020528;28;20228;-72
2023/08/27 10:55:37;;;;;;;14.95;5.57;;;;;;;32.29;37.54;94861.28;5010624;28;20231;-73
2023/08/27 10:58:16;;;;;;;10.38;5.60;;;;;;;32.41;36.80;94864.78;5010104;28;20225;-73
2023/08/27 11:01:07;;;;;;;8.63;5.60;;;;;;;32.43;35.68;94851.69;4984999;28;21111;-73
2023/08/27 11:04:01;;;;;;;10.27;5.70;;;;;;;32.43;37.95;94850.91;5006232;28;20233;-73
2023/08/27 11:06:46;;;;;;;8.68;5.45;;;;;;;32.51;36.37;94852.72;5014794;28;20225;-72
2023/08/27 11:09:12;;;;;;;9.07;5.35;;;;;;;32.32;36.04;94853.25;5013162;28;20620;-74
2023/08/27 11:11:44;;;;;;;10.15;5.20;;;;;;;32.41;35.86;94850.47;5028169;28;20230;-73
2023/08/27 11:14:10;;;;;;;10.00;5.47;;;;;;;32.67;37.39;94847.44;5029074;28;20233;-73
2023/08/27 11:16:44;;;;;;;11.15;5.57;;;;;;;32.75;35.07;94843.78;5010551;28;20230;-73
2023/08/27 11:19:10;;;;;;;11.88;5.28;;;;;;;32.44;35.25;94837.00;5040546;28;20235;-73
2023/08/27 11:21:38;;;;;;;12.13;5.60;;;;;;;32.43;35.84;94834.66;5010639;28;20253;-74
2023/08/27 11:24:24;;;;;;;11.25;5.60;;;;;;;32.59;35.67;94839.06;5047487;28;20229;-73